Time;durP1;ratioP1;P1;durP2;ratioP2;P2;SDS_P1;SDS_P2;PMS_P1;PMS_P2;Temp;Humidity;BMP_temperature;BMP_pressure;BME280_temperature;BME280_humidity;BME280_pressure;Samples;Min_cycle;Max_cycle;Signal;HPM_P1;HPM_P2
2022/08/27 00:02:34;;;;;;;17.75;15.75;;;18.50;99.90;;;19.16;100.00;97685.63;5224246;28;20221;-66
2022/08/27 00:05:08;;;;;;;18.25;16.35;;;18.60;99.90;;;19.09;100.00;97692.41;5224767;28;20230;-68
2022/08/27 00:07:43;;;;;;;17.02;15.35;;;18.50;99.90;;;19.10;100.00;97681.19;5224154;28;20232;-65
2022/08/27 00:10:20;;;;;;;19.00;16.95;;;18.50;99.90;;;19.09;100.00;97687.22;5224106;28;20250;-65
2022/08/27 00:12:55;;;;;;;17.77;16.10;;;18.50;99.90;;;19.12;100.00;97680.38;5225105;28;20671;-67
2022/08/27 00:15:29;;;;;;;17.55;15.85;;;18.50;99.90;;;19.17;100.00;97685.63;5225668;28;20236;-68
2022/08/27 00:18:02;;;;;;;17.00;15.38;;;18.50;99.90;;;19.17;100.00;97693.41;5229957;28;20239;-68
2022/08/27 00:20:35;;;;;;;18.48;16.58;;;18.50;99.90;;;19.17;100.00;97689.97;5231103;28;20232;-67
2022/08/27 00:23:08;;;;;;;18.33;16.40;;;18.50;99.90;;;19.15;100.00;97689.94;5229936;28;20740;-68
2022/08/27 00:25:41;;;;;;;20.13;17.52;;;18.50;99.90;;;19.11;100.00;97691.59;5230033;28;20231;-66
2022/08/27 00:28:16;;;;;;;18.15;16.40;;;18.50;99.90;;;19.08;100.00;97693.22;5229261;28;20201;-65
2022/08/27 00:30:50;;;;;;;18.00;16.10;;;18.50;99.90;;;19.05;100.00;97696.63;5226337;28;20197;-67
2022/08/27 00:33:23;;;;;;;19.00;17.20;;;18.50;99.90;;;19.12;100.00;97695.06;5229856;28;20261;-67
2022/08/27 00:35:57;;;;;;;19.00;17.10;;;18.50;99.90;;;19.11;100.00;97682.94;5227361;28;20258;-68
2022/08/27 00:38:30;;;;;;;19.95;17.85;;;18.50;99.90;;;19.16;100.00;97678.72;5225801;28;20231;-68
2022/08/27 00:41:04;;;;;;;18.55;16.77;;;18.50;99.90;;;19.19;100.00;97672.72;5228961;28;21603;-68
2022/08/27 00:43:48;;;;;;;18.88;16.98;;;18.60;99.90;;;19.20;100.00;97669.28;5230559;28;20272;-68
2022/08/27 00:46:28;;;;;;;17.35;15.80;;;18.60;99.90;;;19.15;100.00;97677.00;5230033;28;20216;-67
2022/08/27 00:49:08;;;;;;;17.38;15.60;;;18.50;99.90;;;19.15;100.00;97682.16;5230979;28;21039;-67
2022/08/27 00:51:42;;;;;;;18.58;16.70;;;18.50;99.90;;;19.20;100.00;97685.75;5231598;28;20252;-65
2022/08/27 00:54:16;;;;;;;20.80;18.60;;;18.60;99.90;;;19.22;100.00;97688.34;5231304;28;20298;-68
2022/08/27 00:56:51;;;;;;;19.38;17.48;;;18.60;99.90;;;19.21;100.00;97687.47;5233242;28;20231;-66
2022/08/27 00:59:29;;;;;;;17.40;15.60;;;18.60;99.90;;;19.24;100.00;97692.72;5231343;28;20209;-68
2022/08/27 01:02:24;;;;;;;20.00;17.98;;;18.60;99.90;;;19.22;100.00;97688.34;5227738;28;20246;-67
2022/08/27 01:05:01;;;;;;;21.50;19.20;;;18.60;99.90;;;19.21;100.00;97687.47;5228106;28;20307;-67
2022/08/27 01:07:39;;;;;;;22.15;19.88;;;18.60;99.90;;;19.23;100.00;97679.72;5224520;28;20259;-67
2022/08/27 01:10:17;;;;;;;20.70;18.67;;;18.60;99.90;;;19.26;100.00;97685.00;5225982;28;20239;-67
2022/08/27 01:12:52;;;;;;;20.50;18.50;;;18.60;99.90;;;19.09;100.00;97687.22;5226053;28;20311;-68
2022/08/27 01:15:29;;;;;;;21.45;19.20;;;18.50;99.90;;;19.11;100.00;97680.34;5227304;28;20201;-68
2022/08/27 01:18:04;;;;;;;20.70;18.50;;;18.50;99.90;;;19.09;100.00;97682.91;5226882;28;20239;-67
2022/08/27 01:20:45;;;;;;;20.00;17.95;;;18.50;99.90;;;19.08;100.00;97685.47;5225719;28;20200;-67
2022/08/27 01:23:25;;;;;;;21.35;19.05;;;18.40;99.90;;;19.03;100.00;97676.72;5226685;28;20248;-66
2022/08/27 01:26:00;;;;;;;18.80;16.85;;;18.40;99.90;;;19.11;100.00;97677.75;5225780;28;20233;-67
2022/08/27 01:28:36;;;;;;;21.42;19.10;;;18.50;99.90;;;19.22;100.00;97673.66;5227055;28;20228;-68
2022/08/27 01:31:13;;;;;;;20.55;18.48;;;18.60;99.90;;;19.20;100.00;97680.56;5225264;28;20247;-68
2022/08/27 01:33:56;;;;;;;19.55;17.55;;;18.60;99.90;;;19.23;100.00;97680.63;5228100;28;20316;-65
2022/08/27 01:36:30;;;;;;;19.05;17.05;;;18.60;99.90;;;19.30;100.00;97690.25;5226827;28;20282;-68
2022/08/27 01:39:03;;;;;;;18.48;16.55;;;18.70;99.90;;;19.31;100.00;97676.44;5226538;28;20657;-64
2022/08/27 01:41:39;;;;;;;19.20;17.20;;;18.70;99.90;;;19.31;100.00;97689.38;5223330;28;20206;-67
2022/08/27 01:44:12;;;;;;;20.40;18.30;;;18.70;99.90;;;19.35;100.00;97692.94;5225796;28;20220;-68
2022/08/27 01:46:45;;;;;;;20.58;18.42;;;18.70;99.90;;;19.34;100.00;97693.75;5226216;28;20255;-65
2022/08/27 01:49:18;;;;;;;19.45;17.00;;;18.70;99.90;;;19.30;100.00;97690.25;5225978;28;20247;-68
2022/08/27 01:51:51;;;;;;;18.23;16.05;;;18.60;99.90;;;19.28;100.00;97693.66;5224096;28;20232;-67
2022/08/27 01:54:24;;;;;;;18.42;16.42;;;18.60;99.90;;;19.23;100.00;97685.78;5222450;28;20739;-67
2022/08/27 01:57:01;;;;;;;19.70;17.77;;;18.60;99.90;;;19.21;100.00;97687.47;5225502;28;20296;-66
2022/08/27 01:59:35;;;;;;;24.15;21.73;;;18.60;99.90;;;19.25;100.00;97693.59;5220898;28;20728;-68
2022/08/27 02:02:15;;;;;;;23.25;20.80;;;18.60;99.90;;;19.27;100.00;97685.00;5223876;28;20215;-67
2022/08/27 02:04:49;;;;;;;23.08;20.58;;;18.60;99.90;;;19.27;100.00;97684.13;5223206;28;20220;-65
2022/08/27 02:07:22;;;;;;;24.05;21.63;;;18.60;99.90;;;19.27;100.00;97678.94;5229652;28;20309;-68
2022/08/27 02:09:56;;;;;;;22.13;19.85;;;18.60;99.90;;;19.33;100.00;97682.53;5228252;28;20673;-68
2022/08/27 02:12:30;;;;;;;24.33;21.92;;;18.60;99.90;;;19.43;100.00;97685.28;5226286;28;20653;-66
2022/08/27 02:15:05;;;;;;;23.08;20.73;;;18.60;99.90;;;19.30;100.00;97682.47;5221421;28;20305;-66
2022/08/27 02:17:38;;;;;;;23.88;21.40;;;18.60;99.90;;;19.25;100.00;97676.31;5222127;28;20227;-66
2022/08/27 02:20:13;;;;;;;24.98;22.38;;;18.60;99.90;;;19.25;100.00;97680.63;5219444;28;20288;-66
2022/08/27 02:22:46;;;;;;;24.27;21.75;;;18.60;99.90;;;19.25;100.00;97673.72;5218748;28;20296;-66
2022/08/27 02:25:20;;;;;;;24.85;21.73;;;18.60;99.90;;;19.28;100.00;97673.78;5220375;28;20583;-67
2022/08/27 02:27:58;;;;;;;24.13;21.80;;;18.60;99.90;;;19.27;100.00;97673.75;5220759;28;20288;-66
2022/08/27 02:30:33;;;;;;;26.42;23.52;;;18.60;99.90;;;19.27;100.00;97671.16;5220565;28;20297;-67
2022/08/27 02:33:07;;;;;;;26.92;24.05;;;18.60;99.90;;;19.22;100.00;97668.47;5218956;28;20240;-66
2022/08/27 02:35:42;;;;;;;21.58;19.15;;;18.60;99.90;;;19.26;100.00;97667.72;5220327;28;20682;-66
2022/08/27 02:38:15;;;;;;;24.83;22.23;;;18.60;99.90;;;19.32;100.00;97673.00;5221723;28;20209;-67
2022/08/27 02:40:48;;;;;;;24.42;21.90;;;18.60;99.90;;;19.29;100.00;97659.13;5219160;28;20220;-67
2022/08/27 02:43:27;;;;;;;24.23;21.75;;;18.60;99.90;;;19.31;100.00;97666.06;5221140;28;20225;-67
2022/08/27 02:46:01;;;;;;;25.67;22.40;;;18.60;99.90;;;19.30;100.00;97666.03;5220228;28;20275;-67
2022/08/27 02:48:37;;;;;;;20.02;17.90;;;18.60;99.90;;;19.35;100.00;97660.09;5221635;28;20720;-67
2022/08/27 02:51:10;;;;;;;25.05;22.33;;;18.70;99.90;;;19.33;100.00;97661.78;5219018;28;20602;-67
2022/08/27 02:53:43;;;;;;;25.90;22.90;;;18.70;99.90;;;19.33;100.00;97659.19;5221202;28;20298;-66
2022/08/27 02:56:18;;;;;;;24.17;21.88;;;18.70;99.90;;;19.36;100.00;97658.38;5219130;28;20213;-67
2022/08/27 02:58:55;;;;;;;23.77;21.33;;;18.60;99.90;;;19.43;100.00;97664.53;5220100;28;20197;-66
2022/08/27 03:01:29;;;;;;;25.30;22.73;;;18.70;99.90;;;19.43;100.00;97657.66;5221135;28;20300;-66
2022/08/27 03:04:02;;;;;;;23.13;20.50;;;18.70;99.90;;;19.42;100.00;97655.03;5217039;28;20225;-67
2022/08/27 03:06:35;;;;;;;22.60;20.27;;;18.70;99.90;;;19.39;100.00;97654.97;5220208;28;20232;-67
2022/08/27 03:09:09;;;;;;;27.67;22.45;;;18.70;99.90;;;19.36;100.00;97651.47;5219713;28;20296;-66
2022/08/27 03:11:42;;;;;;;23.17;20.95;;;18.70;99.90;;;19.35;100.00;97651.47;5216677;28;20304;-67
2022/08/27 03:14:16;;;;;;;24.80;22.20;;;18.70;99.90;;;19.41;100.00;97653.31;5219966;28;20315;-66
2022/08/27 03:16:49;;;;;;;21.13;18.92;;;18.70;99.90;;;19.44;100.00;97655.94;5221696;28;20278;-67
2022/08/27 03:19:22;;;;;;;22.77;20.50;;;18.70;99.90;;;19.48;100.00;97650.81;5222725;28;20259;-67
2022/08/27 03:21:56;;;;;;;23.83;21.33;;;18.80;99.90;;;19.51;100.00;97640.50;5223224;28;20236;-67
2022/08/27 03:24:29;;;;;;;21.50;19.23;;;18.80;99.90;;;19.55;100.00;97649.25;5223586;28;20278;-66
2022/08/27 03:27:03;;;;;;;25.60;22.90;;;18.80;99.90;;;19.56;100.00;97648.38;5222922;28;20208;-67
2022/08/27 03:29:38;;;;;;;23.83;21.13;;;18.90;99.90;;;19.59;100.00;97651.91;5224636;28;20300;-67
2022/08/27 03:32:11;;;;;;;23.67;20.55;;;18.90;99.90;;;19.62;100.00;97651.09;5220194;28;20281;-67
2022/08/27 03:34:44;;;;;;;22.15;19.73;;;18.90;99.90;;;19.59;100.00;97643.25;5223450;28;20305;-67
2022/08/27 03:37:17;;;;;;;23.00;20.60;;;18.90;99.90;;;19.60;100.00;97650.19;5222716;28;20239;-66
2022/08/27 03:39:50;;;;;;;23.33;21.02;;;18.90;99.90;;;19.63;100.00;97645.06;5224081;28;20213;-67
2022/08/27 03:42:24;;;;;;;21.55;19.33;;;18.90;99.90;;;19.62;100.00;97645.03;5222348;28;20205;-67
2022/08/27 03:44:58;;;;;;;21.15;19.00;;;18.80;99.90;;;19.67;100.00;97646.91;5220944;28;20723;-68
2022/08/27 03:47:32;;;;;;;23.23;19.58;;;18.90;99.90;;;19.68;100.00;97643.44;5223001;28;20236;-67
2022/08/27 03:50:07;;;;;;;22.45;20.17;;;18.90;99.90;;;19.66;100.00;97639.97;5221818;28;20300;-67
2022/08/27 03:52:40;;;;;;;21.60;19.42;;;18.90;99.90;;;19.69;100.00;97637.44;5222285;28;20315;-66
2022/08/27 03:55:15;;;;;;;18.88;17.00;;;18.90;99.90;;;19.74;100.00;97641.00;5224235;28;20290;-66
2022/08/27 03:57:48;;;;;;;17.40;15.77;;;18.90;99.90;;;19.73;100.00;97638.34;5223804;28;20237;-66
2022/08/27 04:00:23;;;;;;;18.08;16.17;;;18.90;99.90;;;19.72;100.00;97640.06;5220076;28;20236;-66
2022/08/27 04:02:56;;;;;;;18.10;16.20;;;18.80;99.90;;;19.72;100.00;97634.88;5221342;28;20270;-66
2022/08/27 04:05:29;;;;;;;17.75;15.95;;;18.80;99.90;;;19.67;100.00;97636.53;5223378;28;20323;-66
2022/08/27 04:08:04;;;;;;;17.75;15.90;;;18.80;99.90;;;19.73;100.00;97630.56;5222535;28;20288;-67
2022/08/27 04:10:40;;;;;;;16.90;15.23;;;18.80;99.90;;;19.67;100.00;97628.75;5222829;28;20205;-66
2022/08/27 04:13:13;;;;;;;18.67;16.88;;;18.90;99.90;;;19.64;100.00;97627.78;5218230;28;20669;-67
2022/08/27 04:15:50;;;;;;;18.98;17.17;;;18.80;99.90;;;19.62;100.00;97629.47;5223134;28;20229;-67
2022/08/27 04:18:24;;;;;;;18.15;16.35;;;18.80;99.90;;;19.60;100.00;97624.25;5222530;28;20201;-66
2022/08/27 04:20:57;;;;;;;20.02;17.92;;;18.90;99.90;;;19.55;100.00;97625.91;5222009;28;20267;-68
2022/08/27 04:23:30;;;;;;;24.08;20.23;;;18.80;99.90;;;19.52;100.00;97631.03;5223660;28;20308;-67
2022/08/27 04:26:05;;;;;;;21.90;19.73;;;18.80;99.90;;;19.51;100.00;97629.28;5222319;28;20221;-67
2022/08/27 04:28:38;;;;;;;22.90;20.35;;;18.80;99.90;;;19.50;100.00;97638.78;5222763;28;20231;-67
2022/08/27 04:31:13;;;;;;;21.73;19.60;;;18.80;99.90;;;19.55;100.00;97636.28;5222800;28;20286;-66
2022/08/27 04:33:48;;;;;;;22.35;19.23;;;18.80;99.90;;;19.59;100.00;97643.25;5221121;28;20228;-66
2022/08/27 04:36:23;;;;;;;24.80;22.20;;;18.90;99.90;;;19.63;100.00;97642.47;5222489;28;20572;-66
2022/08/27 04:38:56;;;;;;;24.52;21.50;;;18.90;99.90;;;19.67;100.00;97644.31;5221212;28;20251;-68
2022/08/27 04:41:32;;;;;;;23.40;20.88;;;18.90;99.90;;;19.69;100.00;97645.22;5222378;28;20197;-67
2022/08/27 04:44:08;;;;;;;23.17;20.33;;;18.90;99.90;;;19.74;100.00;97641.00;5222874;28;20576;-67
2022/08/27 04:46:43;;;;;;;22.25;19.50;;;18.90;99.90;;;19.73;100.00;97639.22;5217192;28;20213;-67
2022/08/27 04:49:21;;;;;;;26.30;20.20;;;18.90;99.90;;;19.69;100.00;97650.41;5222394;28;20219;-67
2022/08/27 04:51:55;;;;;;;23.77;21.35;;;18.90;99.90;;;19.70;100.00;97641.75;5222668;28;20237;-67
2022/08/27 04:54:30;;;;;;;22.30;19.90;;;18.90;99.90;;;19.68;100.00;97648.63;5221987;28;20229;-67
2022/08/27 04:57:07;;;;;;;24.92;21.70;;;18.90;99.90;;;19.71;100.00;97647.81;5221740;28;20569;-67
2022/08/27 04:59:40;;;;;;;23.70;20.83;;;18.90;99.90;;;19.71;100.00;97647.81;5222385;28;20259;-67
2022/08/27 05:02:16;;;;;;;22.48;20.23;;;18.90;99.90;;;19.70;100.00;97644.34;5218576;28;20808;-67
2022/08/27 05:04:49;;;;;;;23.83;21.40;;;19.00;99.90;;;19.73;100.00;97648.72;5221879;28;20247;-67
2022/08/27 05:07:22;;;;;;;24.85;22.20;;;19.00;99.90;;;19.74;100.00;97651.34;5221535;28;20197;-67
2022/08/27 05:09:55;;;;;;;26.48;22.50;;;18.90;99.90;;;19.78;100.00;97645.38;5221208;28;20233;-67
2022/08/27 05:12:28;;;;;;;28.50;23.48;;;19.00;99.90;;;19.78;100.00;97647.09;5222158;28;20563;-66
2022/08/27 05:15:02;;;;;;;26.77;23.88;;;19.00;99.90;;;19.87;100.00;97651.56;5221189;28;20256;-67
2022/08/27 05:17:36;;;;;;;26.77;23.90;;;19.00;99.90;;;19.85;100.00;97655.84;5222366;28;20774;-66
2022/08/27 05:20:11;;;;;;;28.95;24.75;;;19.00;99.90;;;19.85;100.00;97661.03;5220680;28;20637;-67
2022/08/27 05:22:45;;;;;;;26.83;23.85;;;19.00;99.90;;;19.84;100.00;97659.28;5221602;28;20229;-67
2022/08/27 05:25:18;;;;;;;26.77;23.92;;;19.10;99.90;;;19.87;100.00;97657.63;5221659;28;20428;-67
2022/08/27 05:27:51;;;;;;;27.95;25.08;;;19.10;99.90;;;19.88;100.00;97655.88;5221134;28;20232;-66
2022/08/27 05:30:24;;;;;;;28.67;25.67;;;19.10;99.90;;;19.89;100.00;97652.47;5219354;28;20251;-67
2022/08/27 05:32:59;;;;;;;29.05;25.95;;;19.10;99.90;;;19.89;100.00;97649.88;5221087;28;20562;-66
2022/08/27 05:35:32;;;;;;;31.38;27.98;;;19.10;99.90;;;19.93;100.00;97651.66;5218806;28;20320;-67
2022/08/27 05:38:05;;;;;;;30.70;27.38;;;19.10;99.90;;;19.95;100.00;97647.38;5217999;28;20225;-67
2022/08/27 05:40:40;;;;;;;36.17;31.67;;;19.10;99.90;;;19.98;100.00;97650.03;5219729;28;20232;-68
2022/08/27 05:43:14;;;;;;;37.53;31.33;;;19.20;99.90;;;19.96;100.00;97651.72;5217477;28;20286;-67
2022/08/27 05:45:49;;;;;;;33.83;30.17;;;19.20;99.90;;;20.01;100.00;97657.84;5221554;28;20196;-67
2022/08/27 05:48:23;;;;;;;34.42;30.73;;;19.30;99.90;;;20.03;100.00;97648.38;5220253;28;20205;-68
2022/08/27 05:50:56;;;;;;;33.50;29.35;;;19.20;99.90;;;20.05;100.00;97654.44;5220080;28;20236;-67
2022/08/27 05:53:29;;;;;;;37.03;32.78;;;19.30;99.90;;;20.06;100.00;97651.03;5220130;28;20292;-67
2022/08/27 05:56:03;;;;;;;37.72;32.63;;;19.30;99.90;;;20.06;100.00;97651.03;5218805;28;20249;-67
2022/08/27 06:01:30;;;;;;;42.60;37.90;;;19.30;99.90;;;20.10;100.00;97657.13;5222393;28;20236;-68
2022/08/27 06:04:05;;;;;;;41.22;36.70;;;19.30;99.90;;;20.11;100.00;97664.91;5219303;28;20244;-67
2022/08/27 06:06:40;;;;;;;46.40;39.72;;;19.30;99.90;;;20.15;100.00;97653.75;5220828;28;20200;-67
2022/08/27 06:09:17;;;;;;;42.50;36.67;;;19.30;99.90;;;20.11;100.00;97662.34;5216753;28;20772;-67
2022/08/27 06:11:50;;;;;;;46.15;39.75;;;19.30;99.90;;;20.18;100.00;97656.41;5221431;28;20228;-67
2022/08/27 06:14:23;;;;;;;40.22;35.92;;;19.40;99.90;;;20.16;100.00;97668.47;5221252;28;20320;-67
2022/08/27 06:16:57;;;;;;;44.40;39.53;;;19.30;99.90;;;20.20;100.00;97665.09;5220557;28;20224;-67
2022/08/27 06:19:33;;;;;;;43.97;37.95;;;19.30;99.90;;;20.19;100.00;97671.13;5219336;28;20292;-67
2022/08/27 06:22:06;;;;;;;48.53;41.33;;;19.40;99.90;;;20.18;100.00;97661.59;5220491;28;20205;-67
2022/08/27 06:24:42;;;;;;;48.35;40.70;;;19.30;99.90;;;20.24;100.00;97672.06;5220585;28;20221;-67
2022/08/27 06:27:19;;;;;;;44.40;39.58;;;19.40;99.90;;;20.23;100.00;97672.94;5218125;28;20255;-67
2022/08/27 06:29:52;;;;;;;46.08;40.15;;;19.40;99.90;;;20.19;100.00;97671.13;5221466;28;20238;-67
2022/08/27 06:32:25;;;;;;;42.25;37.72;;;19.40;99.90;;;20.22;100.00;97663.38;5220771;28;20292;-67
2022/08/27 06:34:59;;;;;;;48.83;41.17;;;19.40;99.90;;;20.26;100.00;97674.72;5219514;28;20668;-67
2022/08/27 06:37:32;;;;;;;48.50;43.30;;;19.40;99.90;;;20.31;100.00;97677.34;5221193;28;20196;-67
2022/08/27 06:40:08;;;;;;;48.35;42.53;;;19.40;99.90;;;20.23;100.00;97675.53;5221067;28;20312;-67
2022/08/27 06:42:41;;;;;;;50.42;41.17;;;19.40;99.90;;;20.19;100.00;97676.31;5221643;28;20201;-67
2022/08/27 06:45:14;;;;;;;44.00;39.20;;;19.40;99.90;;;20.22;100.00;97673.75;5221351;28;20637;-67
2022/08/27 06:47:47;;;;;;;44.25;39.45;;;19.50;99.90;;;20.30;100.00;97675.63;5220613;28;20229;-68
2022/08/27 06:50:22;;;;;;;42.95;37.40;;;19.50;99.90;;;20.30;100.00;97680.81;5224946;28;20313;-67
2022/08/27 06:52:59;;;;;;;46.25;40.80;;;19.50;99.90;;;20.38;100.00;97676.63;5224052;28;20204;-67
2022/08/27 06:55:32;;;;;;;47.55;40.63;;;19.50;99.90;;;20.35;100.00;97674.84;5224148;28;20302;-68
2022/08/27 06:58:09;;;;;;;47.00;41.08;;;19.50;99.90;;;20.40;100.00;97685.28;5226188;28;20204;-67
2022/08/27 07:00:43;;;;;;;53.50;45.70;;;19.60;99.90;;;20.40;100.00;97677.50;5221997;28;20209;-67
2022/08/27 07:03:20;;;;;;;57.95;46.13;;;19.50;99.90;;;20.37;100.00;97686.09;5225527;28;20421;-67
2022/08/27 07:06:05;;;;;;;54.47;44.28;;;19.50;99.90;;;20.48;100.00;97683.69;5225556;28;20210;-68
2022/08/27 07:08:39;;;;;;;50.95;41.47;;;19.60;99.90;;;20.48;100.00;97681.06;5227385;28;20612;-69
2022/08/27 07:11:14;;;;;;;53.85;43.85;;;19.60;99.90;;;20.55;100.00;97677.78;5222518;28;20644;-67
2022/08/27 07:13:48;;;;;;;44.72;38.95;;;19.70;99.90;;;20.59;100.00;97669.16;5226665;28;20256;-67
2022/08/27 07:16:25;;;;;;;56.35;45.35;;;19.70;99.90;;;20.43;100.00;97681.03;5226187;28;20342;-67
2022/08/27 07:19:01;;;;;;;48.53;40.75;;;19.70;99.90;;;20.51;100.00;97680.25;5222854;28;20222;-66
2022/08/27 07:21:39;;;;;;;52.85;43.28;;;19.70;99.90;;;20.54;100.00;97673.41;5224807;28;20205;-67
2022/08/27 07:24:12;;;;;;;52.15;42.17;;;19.70;99.90;;;20.63;100.00;97670.97;5221216;28;20240;-66
2022/08/27 07:26:46;;;;;;;51.67;42.35;;;19.80;99.90;;;20.67;100.00;97670.16;5224699;28;20323;-66
2022/08/27 07:29:19;;;;;;;50.20;43.03;;;19.80;99.90;;;20.78;99.73;97669.44;5223602;28;20237;-65
2022/08/27 07:31:52;;;;;;;49.85;41.47;;;19.90;99.90;;;20.80;100.00;97676.38;5222340;28;20296;-66
2022/08/27 07:34:25;;;;;;;54.35;43.55;;;19.90;99.90;;;20.83;99.99;97679.03;5223035;28;20700;-65
2022/08/27 07:36:59;;;;;;;46.42;38.92;;;20.00;99.90;;;20.89;99.77;97680.84;5223956;28;20631;-64
2022/08/27 07:39:32;;;;;;;50.45;42.13;;;20.10;99.90;;;20.92;99.73;97689.56;5220432;28;20229;-65
2022/08/27 07:44:56;;;;;;;42.17;37.20;;;20.10;99.90;;;20.95;99.29;97688.72;5223482;28;20779;-66
2022/08/27 07:47:30;;;;;;;46.05;40.60;;;20.10;99.90;;;20.92;99.14;97689.56;5220897;28;20292;-65
2022/08/27 07:50:04;;;;;;;48.28;41.10;;;20.10;99.90;;;21.02;98.54;97690.53;5225310;28;20677;-65
2022/08/27 07:52:40;;;;;;;45.13;38.75;;;20.10;99.90;;;20.98;98.71;97698.28;5223414;28;20240;-66
2022/08/27 07:55:14;;;;;;;43.90;38.08;;;20.10;99.90;;;21.08;97.99;97694.94;5222270;28;20256;-66
2022/08/27 07:57:48;;;;;;;44.90;39.95;;;20.10;99.90;;;20.93;98.64;97687.81;5224001;28;20224;-67
2022/08/27 08:00:21;;;;;;;47.58;41.20;;;20.10;99.90;;;20.98;99.09;97696.56;5225337;28;20651;-65
2022/08/27 08:02:54;;;;;;;46.67;40.22;;;20.10;99.90;;;21.00;98.74;97700.03;5222225;28;20236;-65
2022/08/27 08:05:30;;;;;;;47.88;40.95;;;20.10;99.90;;;21.12;97.24;97687.22;5226137;28;20598;-65
2022/08/27 08:08:04;;;;;;;46.20;38.78;;;20.10;99.90;;;21.04;97.58;97696.63;5224358;28;20243;-65
2022/08/27 08:10:39;;;;;;;46.45;39.45;;;20.10;99.90;;;21.04;97.98;97699.22;5222833;28;20650;-64
2022/08/27 08:13:12;;;;;;;47.80;39.70;;;20.10;99.90;;;21.06;98.70;97702.72;5224516;28;20345;-65
2022/08/27 08:15:46;;;;;;;46.47;39.78;;;20.10;99.90;;;21.03;99.09;97702.69;5224921;28;20249;-65
2022/08/27 08:18:20;;;;;;;49.67;40.08;;;20.20;99.90;;;21.00;99.26;97705.22;5225855;28;20204;-65
2022/08/27 08:20:53;;;;;;;44.50;39.72;;;20.10;99.90;;;21.00;99.61;97713.03;5221435;28;20284;-65
2022/08/27 08:23:32;;;;;;;46.13;39.05;;;20.10;99.90;;;21.00;99.81;97713.03;5225023;28;20585;-65
2022/08/27 08:26:07;;;;;;;45.53;39.45;;;20.10;99.90;;;21.02;98.88;97713.91;5223850;28;20705;-66
2022/08/27 08:28:41;;;;;;;48.70;40.95;;;20.10;99.90;;;21.03;99.02;97710.50;5222457;28;20259;-66
2022/08/27 08:31:14;;;;;;;46.05;39.22;;;20.10;99.90;;;20.99;98.58;97711.28;5216338;28;20747;-65
2022/08/27 08:33:47;;;;;;;44.38;38.72;;;20.00;99.90;;;20.98;98.93;97716.47;5222761;28;20707;-65
2022/08/27 08:36:21;;;;;;;44.22;39.35;;;20.00;99.90;;;20.90;99.63;97717.22;5220545;28;20252;-65
2022/08/27 08:38:55;;;;;;;40.50;35.22;;;20.10;99.90;;;20.97;99.90;97722.50;5216563;28;20286;-65
2022/08/27 08:41:41;;;;;;;48.17;40.47;;;20.10;99.90;;;21.00;99.06;97723.41;5218810;28;20324;-66
2022/08/27 08:44:26;;;;;;;43.20;38.50;;;20.10;99.90;;;21.07;98.67;97720.06;5217551;28;20311;-65
2022/08/27 08:47:05;;;;;;;44.60;39.40;;;20.20;99.90;;;21.10;99.53;97725.31;5221154;28;20734;-65
2022/08/27 08:49:49;;;;;;;41.47;37.08;;;20.30;99.90;;;21.21;99.46;97728.03;5222205;28;20653;-65
2022/08/27 08:52:36;;;;;;;41.03;36.88;;;20.40;99.90;;;21.41;97.47;97725.72;5222331;28;20232;-66
2022/08/27 08:55:30;;;;;;;40.00;35.65;;;20.50;99.90;;;21.57;95.94;97727.63;5221666;28;20306;-65
2022/08/27 08:58:14;;;;;;;41.92;37.53;;;20.60;99.90;;;21.61;96.33;97725.97;5223381;28;20307;-65
2022/08/27 09:00:54;;;;;;;43.15;38.35;;;20.70;99.90;;;21.65;96.18;97719.06;5223393;28;20334;-65
2022/08/27 09:03:30;;;;;;;39.85;35.53;;;20.80;99.90;;;21.82;95.04;97725.31;5222511;28;20607;-66
2022/08/27 09:06:08;;;;;;;38.47;34.50;;;20.90;99.90;;;21.92;94.20;97723.66;5223342;28;20558;-66
2022/08/27 09:08:43;;;;;;;39.58;35.35;;;21.00;99.90;;;22.03;93.83;97725.53;5223891;28;20197;-66
2022/08/27 09:11:28;;;;;;;39.67;35.30;;;21.10;99.90;;;22.20;92.88;97717.03;5223586;28;20587;-66
2022/08/27 09:14:15;;;;;;;38.17;34.22;;;21.30;99.90;;;22.36;90.95;97718.91;5221786;28;20307;-66
2022/08/27 09:16:49;;;;;;;38.80;34.78;;;21.50;99.90;;;22.37;90.24;97714.56;5224285;28;20229;-65
2022/08/27 09:19:28;;;;;;;37.25;33.28;;;21.50;99.90;;;22.39;91.63;97720.66;5222847;28;20227;-65
2022/08/27 09:22:06;;;;;;;36.17;32.47;;;21.50;99.90;;;22.60;89.21;97720.81;5224017;28;20228;-66
2022/08/27 09:24:53;;;;;;;36.42;32.53;;;21.60;99.90;;;22.63;89.50;97725.16;5224435;28;20583;-66
2022/08/27 09:27:28;;;;;;;36.50;32.65;;;21.60;99.90;;;22.62;89.04;97713.03;5218549;28;20289;-66
2022/08/27 09:30:08;;;;;;;37.67;32.67;;;21.50;99.90;;;22.63;89.04;97725.16;5223678;28;20236;-66
2022/08/27 09:32:41;;;;;;;35.92;32.13;;;21.60;99.90;;;22.60;89.58;97727.75;5223434;28;20228;-65
2022/08/27 09:35:15;;;;;;;39.35;32.42;;;21.50;99.90;;;22.62;89.36;97731.25;5223959;28;20231;-66
2022/08/27 09:37:54;;;;;;;36.47;32.42;;;21.60;99.90;;;22.67;88.34;97711.31;5223978;28;20260;-66
2022/08/27 09:40:32;;;;;;;35.67;31.90;;;21.60;99.90;;;22.73;88.25;97719.19;5216016;28;20236;-65
2022/08/27 09:43:21;;;;;;;35.30;31.55;;;21.60;99.90;;;22.77;87.90;97707.03;5223086;28;20864;-65
2022/08/27 09:45:58;;;;;;;34.78;31.20;;;21.70;99.90;;;22.80;87.29;97715.72;5221313;28;20634;-66
2022/08/27 09:48:34;;;;;;;34.80;31.42;;;21.70;99.90;;;22.78;88.47;97717.47;5222337;28;20574;-66
2022/08/27 09:51:11;;;;;;;35.20;31.55;;;21.70;99.90;;;22.93;87.17;97717.56;5220868;28;20743;-66
2022/08/27 09:53:49;;;;;;;32.67;29.48;;;21.80;99.90;;;22.83;87.56;97712.28;5222889;28;20248;-66
2022/08/27 09:56:28;;;;;;;36.10;32.55;;;21.70;99.90;;;22.68;89.34;97718.28;5222031;28;20236;-66
2022/08/27 09:59:05;;;;;;;36.70;33.03;;;21.60;99.90;;;22.51;90.56;97725.97;5220305;28;20292;-65
2022/08/27 10:01:53;;;;;;;32.90;29.60;;;21.50;99.90;;;22.38;91.54;97714.59;5222474;28;20284;-65
2022/08/27 10:04:36;;;;;;;34.45;30.83;;;21.40;99.90;;;22.38;92.06;97718.94;5221730;28;20304;-66
2022/08/27 10:07:39;;;;;;;27.92;25.23;;;21.30;99.90;;;22.24;91.78;97713.59;5221210;28;20301;-66
2022/08/27 10:10:20;;;;;;;29.60;26.65;;;21.20;99.90;;;22.25;91.41;97712.72;5220677;28;20221;-65
2022/08/27 10:13:01;;;;;;;28.45;25.55;;;21.10;99.90;;;22.04;93.18;97714.25;5220475;28;20204;-66
2022/08/27 10:15:56;;;;;;;28.42;25.73;;;21.00;99.90;;;22.03;92.80;97717.72;5220040;28;20193;-66
2022/08/27 10:18:40;;;;;;;28.30;25.60;;;21.00;99.90;;;21.87;93.48;97730.56;5220511;28;20728;-66
2022/08/27 10:21:24;;;;;;;29.20;26.40;;;20.90;99.90;;;21.75;94.31;97729.59;5220410;28;20209;-65
2022/08/27 10:24:14;;;;;;;31.00;27.85;;;20.90;99.90;;;21.63;95.05;97732.03;5217250;28;20266;-66
2022/08/27 10:26:58;;;;;;;30.60;27.70;;;20.80;99.90;;;21.63;95.28;97731.16;5223344;28;20313;-66
2022/08/27 10:29:41;;;;;;;32.03;28.70;;;20.70;99.90;;;21.57;95.94;97735.44;5225121;28;20291;-65
2022/08/27 10:32:31;;;;;;;29.55;26.55;;;20.70;99.90;;;21.58;96.99;97726.78;5225019;28;20225;-65
2022/08/27 10:35:14;;;;;;;32.17;29.13;;;20.80;99.90;;;21.64;98.00;97735.53;5224667;28;20663;-66
2022/08/27 10:38:01;;;;;;;27.85;25.25;;;20.80;99.90;;;21.55;97.28;97734.56;5224082;28;20236;-65
2022/08/27 10:40:43;;;;;;;27.98;25.27;;;20.70;99.90;;;21.39;98.12;97740.44;5223731;28;20277;-64
2022/08/27 10:43:45;;;;;;;30.73;27.63;;;20.60;99.90;;;21.13;99.03;97740.06;5217595;28;20709;-65
2022/08/27 10:46:43;;;;;;;29.80;26.80;;;20.40;99.90;;;20.93;100.00;97743.25;5224740;28;20192;-65